sensor_id;sensor_type;location;lat;lon;timestamp;P1;durP1;ratioP1;P2;durP2;ratioP2
28946;SDS011;16052;50.930;5.326;2023-04-03T00:00:28;0.10;;;0.10;;
28946;SDS011;16052;50.930;5.326;2023-04-03T00:02:54;0.20;;;0.20;;
28946;SDS011;16052;50.930;5.326;2023-04-03T00:05:19;0.20;;;0.20;;
28946;SDS011;16052;50.930;5.326;2023-04-03T00:07:45;0.20;;;0.20;;
28946;SDS011;16052;50.930;5.326;2023-04-03T00:10:11;0.20;;;0.20;;
28946;SDS011;16052;50.930;5.326;2023-04-03T00:12:37;0.20;;;0.20;;
28946;SDS011;16052;50.930;5.326;2023-04-03T00:15:03;0.17;;;0.17;;
28946;SDS011;16052;50.930;5.326;2023-04-03T00:17:29;0.10;;;0.10;;
28946;SDS011;16052;50.930;5.326;2023-04-03T00:19:54;0.20;;;0.20;;
28946;SDS011;16052;50.930;5.326;2023-04-03T00:22:21;0.20;;;0.20;;
28946;SDS011;16052;50.930;5.326;2023-04-03T00:24:46;0.20;;;0.20;;
28946;SDS011;16052;50.930;5.326;2023-04-03T00:27:12;0.15;;;0.15;;
28946;SDS011;16052;50.930;5.326;2023-04-03T00:29:38;0.20;;;0.20;;
28946;SDS011;16052;50.930;5.326;2023-04-03T00:32:09;0.17;;;0.17;;
28946;SDS011;16052;50.930;5.326;2023-04-03T00:34:35;0.20;;;0.20;;
28946;SDS011;16052;50.930;5.326;2023-04-03T00:37:02;0.20;;;0.20;;
28946;SDS011;16052;50.930;5.326;2023-04-03T00:39:27;0.20;;;0.20;;
28946;SDS011;16052;50.930;5.326;2023-04-03T00:41:53;0.10;;;0.10;;
28946;SDS011;16052;50.930;5.326;2023-04-03T00:44:23;0.20;;;0.20;;
28946;SDS011;16052;50.930;5.326;2023-04-03T00:47:05;0.20;;;0.20;;
28946;SDS011;16052;50.930;5.326;2023-04-03T00:49:34;0.20;;;0.20;;
28946;SDS011;16052;50.930;5.326;2023-04-03T00:52:02;0.20;;;0.20;;
28946;SDS011;16052;50.930;5.326;2023-04-03T00:54:28;0.20;;;0.20;;
28946;SDS011;16052;50.930;5.326;2023-04-03T00:56:55;0.20;;;0.20;;
28946;SDS011;16052;50.930;5.326;2023-04-03T00:59:24;0.20;;;0.20;;
28946;SDS011;16052;50.930;5.326;2023-04-03T01:02:01;0.20;;;0.20;;
28946;SDS011;16052;50.930;5.326;2023-04-03T01:06:53;0.10;;;0.10;;
28946;SDS011;16052;50.930;5.326;2023-04-03T01:09:20;0.20;;;0.20;;
28946;SDS011;16052;50.930;5.326;2023-04-03T01:11:47;0.20;;;0.20;;
28946;SDS011;16052;50.930;5.326;2023-04-03T01:14:13;0.20;;;0.20;;
28946;SDS011;16052;50.930;5.326;2023-04-03T01:16:38;0.20;;;0.20;;
28946;SDS011;16052;50.930;5.326;2023-04-03T01:19:05;0.20;;;0.20;;
28946;SDS011;16052;50.930;5.326;2023-04-03T01:24:32;0.20;;;0.20;;
28946;SDS011;16052;50.930;5.326;2023-04-03T01:27:00;0.10;;;0.10;;
28946;SDS011;16052;50.930;5.326;2023-04-03T01:29:27;0.20;;;0.20;;
28946;SDS011;16052;50.930;5.326;2023-04-03T01:31:54;0.20;;;0.20;;
28946;SDS011;16052;50.930;5.326;2023-04-03T01:34:25;0.20;;;0.20;;
28946;SDS011;16052;50.930;5.326;2023-04-03T01:36:53;0.20;;;0.20;;
28946;SDS011;16052;50.930;5.326;2023-04-03T01:39:19;0.20;;;0.20;;
28946;SDS011;16052;50.930;5.326;2023-04-03T01:41:45;0.20;;;0.20;;
28946;SDS011;16052;50.930;5.326;2023-04-03T01:44:11;0.20;;;0.20;;
28946;SDS011;16052;50.930;5.326;2023-04-03T01:46:37;0.30;;;0.30;;
28946;SDS011;16052;50.930;5.326;2023-04-03T01:49:03;0.20;;;0.20;;
28946;SDS011;16052;50.930;5.326;2023-04-03T01:51:29;0.25;;;0.25;;
28946;SDS011;16052;50.930;5.326;2023-04-03T01:53:55;0.20;;;0.20;;
28946;SDS011;16052;50.930;5.326;2023-04-03T01:56:21;0.20;;;0.20;;
28946;SDS011;16052;50.930;5.326;2023-04-03T01:58:47;0.20;;;0.20;;
28946;SDS011;16052;50.930;5.326;2023-04-03T02:01:13;0.20;;;0.20;;
28946;SDS011;16052;50.930;5.326;2023-04-03T02:03:38;0.20;;;0.20;;
28946;SDS011;16052;50.930;5.326;2023-04-03T02:06:04;0.10;;;0.10;;
28946;SDS011;16052;50.930;5.326;2023-04-03T02:08:31;0.20;;;0.20;;
28946;SDS011;16052;50.930;5.326;2023-04-03T02:10:58;0.20;;;0.20;;
28946;SDS011;16052;50.930;5.326;2023-04-03T02:13:23;0.20;;;0.20;;
28946;SDS011;16052;50.930;5.326;2023-04-03T02:15:49;0.20;;;0.20;;
28946;SDS011;16052;50.930;5.326;2023-04-03T02:18:15;0.20;;;0.20;;
28946;SDS011;16052;50.930;5.326;2023-04-03T02:20:42;0.20;;;0.20;;
28946;SDS011;16052;50.930;5.326;2023-04-03T02:23:08;0.20;;;0.20;;
28946;SDS011;16052;50.930;5.326;2023-04-03T02:25:33;0.15;;;0.15;;
28946;SDS011;16052;50.930;5.326;2023-04-03T02:27:59;0.20;;;0.20;;
28946;SDS011;16052;50.930;5.326;2023-04-03T02:30:26;0.20;;;0.20;;
28946;SDS011;16052;50.930;5.326;2023-04-03T02:32:52;0.20;;;0.20;;
28946;SDS011;16052;50.930;5.326;2023-04-03T02:35:18;0.20;;;0.20;;
28946;SDS011;16052;50.930;5.326;2023-04-03T02:37:43;0.20;;;0.20;;
28946;SDS011;16052;50.930;5.326;2023-04-03T02:40:09;0.10;;;0.10;;
28946;SDS011;16052;50.930;5.326;2023-04-03T02:42:36;0.20;;;0.20;;
28946;SDS011;16052;50.930;5.326;2023-04-03T02:45:02;0.10;;;0.10;;
28946;SDS011;16052;50.930;5.326;2023-04-03T02:47:28;0.20;;;0.20;;
28946;SDS011;16052;50.930;5.326;2023-04-03T02:49:53;0.20;;;0.20;;
28946;SDS011;16052;50.930;5.326;2023-04-03T02:52:20;0.20;;;0.20;;
28946;SDS011;16052;50.930;5.326;2023-04-03T02:54:46;0.10;;;0.10;;
28946;SDS011;16052;50.930;5.326;2023-04-03T02:57:13;0.10;;;0.10;;
28946;SDS011;16052;50.930;5.326;2023-04-03T02:59:40;0.20;;;0.20;;
28946;SDS011;16052;50.930;5.326;2023-04-03T03:02:09;0.10;;;0.10;;
28946;SDS011;16052;50.930;5.326;2023-04-03T03:04:35;0.10;;;0.10;;
28946;SDS011;16052;50.930;5.326;2023-04-03T03:07:01;0.20;;;0.20;;
28946;SDS011;16052;50.930;5.326;2023-04-03T03:09:27;0.10;;;0.10;;
28946;SDS011;16052;50.930;5.326;2023-04-03T03:11:54;0.20;;;0.20;;
28946;SDS011;16052;50.930;5.326;2023-04-03T03:14:20;0.20;;;0.20;;
28946;SDS011;16052;50.930;5.326;2023-04-03T03:16:46;0.20;;;0.20;;
28946;SDS011;16052;50.930;5.326;2023-04-03T03:19:11;0.15;;;0.15;;
28946;SDS011;16052;50.930;5.326;2023-04-03T03:21:37;0.20;;;0.20;;
28946;SDS011;16052;50.930;5.326;2023-04-03T03:24:03;0.20;;;0.20;;
28946;SDS011;16052;50.930;5.326;2023-04-03T03:26:28;0.10;;;0.10;;
28946;SDS011;16052;50.930;5.326;2023-04-03T03:28:55;0.20;;;0.20;;
28946;SDS011;16052;50.930;5.326;2023-04-03T03:31:21;0.20;;;0.20;;
28946;SDS011;16052;50.930;5.326;2023-04-03T03:33:46;0.20;;;0.20;;
28946;SDS011;16052;50.930;5.326;2023-04-03T03:36:12;0.20;;;0.20;;
28946;SDS011;16052;50.930;5.326;2023-04-03T03:38:39;0.20;;;0.20;;
28946;SDS011;16052;50.930;5.326;2023-04-03T03:41:04;0.20;;;0.20;;
28946;SDS011;16052;50.930;5.326;2023-04-03T03:43:30;0.20;;;0.20;;
28946;SDS011;16052;50.930;5.326;2023-04-03T03:45:56;0.10;;;0.10;;
28946;SDS011;16052;50.930;5.326;2023-04-03T03:48:21;0.20;;;0.20;;
28946;SDS011;16052;50.930;5.326;2023-04-03T03:50:47;0.20;;;0.20;;
28946;SDS011;16052;50.930;5.326;2023-04-03T03:53:14;0.20;;;0.20;;
28946;SDS011;16052;50.930;5.326;2023-04-03T03:55:40;0.20;;;0.20;;
28946;SDS011;16052;50.930;5.326;2023-04-03T03:58:05;0.20;;;0.20;;
28946;SDS011;16052;50.930;5.326;2023-04-03T04:00:32;0.20;;;0.20;;
28946;SDS011;16052;50.930;5.326;2023-04-03T04:02:57;0.20;;;0.20;;
28946;SDS011;16052;50.930;5.326;2023-04-03T04:05:23;0.20;;;0.20;;
28946;SDS011;16052;50.930;5.326;2023-04-03T04:07:49;0.20;;;0.20;;
28946;SDS011;16052;50.930;5.326;2023-04-03T04:10:15;0.20;;;0.20;;
28946;SDS011;16052;50.930;5.326;2023-04-03T04:12:41;0.20;;;0.20;;
28946;SDS011;16052;50.930;5.326;2023-04-03T04:15:07;0.10;;;0.10;;
28946;SDS011;16052;50.930;5.326;2023-04-03T04:17:34;0.20;;;0.20;;
28946;SDS011;16052;50.930;5.326;2023-04-03T04:20:00;0.20;;;0.20;;
28946;SDS011;16052;50.930;5.326;2023-04-03T04:22:28;0.20;;;0.20;;
28946;SDS011;16052;50.930;5.326;2023-04-03T04:24:54;0.20;;;0.20;;
28946;SDS011;16052;50.930;5.326;2023-04-03T04:27:20;0.10;;;0.10;;
28946;SDS011;16052;50.930;5.326;2023-04-03T04:29:46;0.20;;;0.20;;
28946;SDS011;16052;50.930;5.326;2023-04-03T04:32:12;0.20;;;0.20;;
28946;SDS011;16052;50.930;5.326;2023-04-03T04:34:37;0.20;;;0.20;;
28946;SDS011;16052;50.930;5.326;2023-04-03T04:37:03;0.20;;;0.20;;
28946;SDS011;16052;50.930;5.326;2023-04-03T04:39:28;0.20;;;0.20;;
28946;SDS011;16052;50.930;5.326;2023-04-03T04:41:54;0.20;;;0.20;;
28946;SDS011;16052;50.930;5.326;2023-04-03T04:44:20;0.20;;;0.20;;
28946;SDS011;16052;50.930;5.326;2023-04-03T04:46:45;0.20;;;0.20;;
28946;SDS011;16052;50.930;5.326;2023-04-03T04:49:11;0.20;;;0.20;;
28946;SDS011;16052;50.930;5.326;2023-04-03T04:51:37;0.10;;;0.10;;
28946;SDS011;16052;50.930;5.326;2023-04-03T04:54:02;0.20;;;0.20;;
28946;SDS011;16052;50.930;5.326;2023-04-03T04:56:28;0.20;;;0.20;;
28946;SDS011;16052;50.930;5.326;2023-04-03T04:58:54;0.10;;;0.10;;
28946;SDS011;16052;50.930;5.326;2023-04-03T05:01:21;0.20;;;0.20;;
28946;SDS011;16052;50.930;5.326;2023-04-03T05:03:46;0.20;;;0.20;;
28946;SDS011;16052;50.930;5.326;2023-04-03T05:06:12;0.20;;;0.20;;
28946;SDS011;16052;50.930;5.326;2023-04-03T05:08:38;0.20;;;0.20;;
28946;SDS011;16052;50.930;5.326;2023-04-03T05:11:04;0.20;;;0.20;;
28946;SDS011;16052;50.930;5.326;2023-04-03T05:13:30;0.10;;;0.10;;
28946;SDS011;16052;50.930;5.326;2023-04-03T05:15:55;0.20;;;0.20;;
28946;SDS011;16052;50.930;5.326;2023-04-03T05:18:21;0.20;;;0.20;;
28946;SDS011;16052;50.930;5.326;2023-04-03T05:20:48;0.20;;;0.20;;
28946;SDS011;16052;50.930;5.326;2023-04-03T05:23:15;0.20;;;0.20;;
28946;SDS011;16052;50.930;5.326;2023-04-03T05:25:41;0.20;;;0.20;;
28946;SDS011;16052;50.930;5.326;2023-04-03T05:28:08;0.20;;;0.20;;
28946;SDS011;16052;50.930;5.326;2023-04-03T05:30:34;0.20;;;0.20;;
28946;SDS011;16052;50.930;5.326;2023-04-03T05:33:00;0.20;;;0.20;;
28946;SDS011;16052;50.930;5.326;2023-04-03T05:35:26;0.20;;;0.20;;
28946;SDS011;16052;50.930;5.326;2023-04-03T05:37:52;0.25;;;0.25;;
28946;SDS011;16052;50.930;5.326;2023-04-03T05:40:17;0.20;;;0.20;;
28946;SDS011;16052;50.930;5.326;2023-04-03T05:42:43;0.20;;;0.20;;
28946;SDS011;16052;50.930;5.326;2023-04-03T05:45:09;0.20;;;0.20;;
28946;SDS011;16052;50.930;5.326;2023-04-03T05:47:35;0.20;;;0.20;;
28946;SDS011;16052;50.930;5.326;2023-04-03T05:50:01;0.20;;;0.20;;
28946;SDS011;16052;50.930;5.326;2023-04-03T05:52:31;0.20;;;0.20;;
28946;SDS011;16052;50.930;5.326;2023-04-03T05:55:01;0.20;;;0.20;;
28946;SDS011;16052;50.930;5.326;2023-04-03T05:57:27;0.20;;;0.20;;
28946;SDS011;16052;50.930;5.326;2023-04-03T05:59:52;0.20;;;0.20;;
28946;SDS011;16052;50.930;5.326;2023-04-03T06:02:22;0.20;;;0.20;;
28946;SDS011;16052;50.930;5.326;2023-04-03T06:04:49;0.20;;;0.20;;
28946;SDS011;16052;50.930;5.326;2023-04-03T06:07:18;0.20;;;0.20;;
28946;SDS011;16052;50.930;5.326;2023-04-03T06:09:47;0.20;;;0.20;;
28946;SDS011;16052;50.930;5.326;2023-04-03T06:12:13;0.20;;;0.20;;
28946;SDS011;16052;50.930;5.326;2023-04-03T06:14:41;0.20;;;0.20;;
28946;SDS011;16052;50.930;5.326;2023-04-03T06:17:07;0.20;;;0.20;;
28946;SDS011;16052;50.930;5.326;2023-04-03T06:19:34;0.20;;;0.20;;
28946;SDS011;16052;50.930;5.326;2023-04-03T06:22:00;0.20;;;0.20;;
28946;SDS011;16052;50.930;5.326;2023-04-03T06:24:25;0.10;;;0.10;;
28946;SDS011;16052;50.930;5.326;2023-04-03T06:26:51;0.25;;;0.25;;
28946;SDS011;16052;50.930;5.326;2023-04-03T06:29:21;0.20;;;0.20;;
28946;SDS011;16052;50.930;5.326;2023-04-03T06:31:50;0.20;;;0.20;;
28946;SDS011;16052;50.930;5.326;2023-04-03T06:34:16;0.20;;;0.20;;
28946;SDS011;16052;50.930;5.326;2023-04-03T06:36:43;0.20;;;0.20;;
28946;SDS011;16052;50.930;5.326;2023-04-03T06:39:13;0.20;;;0.20;;
28946;SDS011;16052;50.930;5.326;2023-04-03T06:41:40;0.20;;;0.20;;
28946;SDS011;16052;50.930;5.326;2023-04-03T06:44:06;0.20;;;0.20;;
28946;SDS011;16052;50.930;5.326;2023-04-03T06:49:02;0.20;;;0.20;;
28946;SDS011;16052;50.930;5.326;2023-04-03T06:51:29;0.20;;;0.20;;
28946;SDS011;16052;50.930;5.326;2023-04-03T06:53:56;0.20;;;0.20;;
28946;SDS011;16052;50.930;5.326;2023-04-03T06:56:23;0.30;;;0.30;;
28946;SDS011;16052;50.930;5.326;2023-04-03T06:58:50;0.20;;;0.20;;
28946;SDS011;16052;50.930;5.326;2023-04-03T07:01:16;0.25;;;0.25;;
28946;SDS011;16052;50.930;5.326;2023-04-03T07:03:47;0.28;;;0.28;;
28946;SDS011;16052;50.930;5.326;2023-04-03T07:06:15;0.20;;;0.20;;
28946;SDS011;16052;50.930;5.326;2023-04-03T07:08:41;0.20;;;0.20;;
28946;SDS011;16052;50.930;5.326;2023-04-03T07:11:08;0.30;;;0.30;;
28946;SDS011;16052;50.930;5.326;2023-04-03T07:13:34;0.20;;;0.20;;
28946;SDS011;16052;50.930;5.326;2023-04-03T07:16:01;0.20;;;0.20;;
28946;SDS011;16052;50.930;5.326;2023-04-03T07:18:28;0.20;;;0.20;;
28946;SDS011;16052;50.930;5.326;2023-04-03T07:20:54;0.20;;;0.20;;
28946;SDS011;16052;50.930;5.326;2023-04-03T07:23:21;0.10;;;0.10;;
28946;SDS011;16052;50.930;5.326;2023-04-03T07:25:49;0.30;;;0.30;;
28946;SDS011;16052;50.930;5.326;2023-04-03T07:28:16;0.20;;;0.20;;
28946;SDS011;16052;50.930;5.326;2023-04-03T07:30:44;0.20;;;0.20;;
28946;SDS011;16052;50.930;5.326;2023-04-03T07:33:15;0.20;;;0.20;;
28946;SDS011;16052;50.930;5.326;2023-04-03T07:35:42;0.20;;;0.20;;
28946;SDS011;16052;50.930;5.326;2023-04-03T07:38:08;0.20;;;0.20;;
28946;SDS011;16052;50.930;5.326;2023-04-03T07:40:36;0.20;;;0.20;;
28946;SDS011;16052;50.930;5.326;2023-04-03T07:43:02;0.20;;;0.20;;
28946;SDS011;16052;50.930;5.326;2023-04-03T07:45:28;0.20;;;0.20;;
28946;SDS011;16052;50.930;5.326;2023-04-03T07:47:54;0.10;;;0.10;;
28946;SDS011;16052;50.930;5.326;2023-04-03T07:50:21;0.20;;;0.20;;
28946;SDS011;16052;50.930;5.326;2023-04-03T07:52:48;0.20;;;0.20;;
28946;SDS011;16052;50.930;5.326;2023-04-03T07:55:15;0.10;;;0.10;;
28946;SDS011;16052;50.930;5.326;2023-04-03T07:57:41;0.20;;;0.20;;
28946;SDS011;16052;50.930;5.326;2023-04-03T08:00:09;0.20;;;0.20;;
28946;SDS011;16052;50.930;5.326;2023-04-03T08:02:38;0.20;;;0.20;;
28946;SDS011;16052;50.930;5.326;2023-04-03T08:05:03;0.20;;;0.20;;
28946;SDS011;16052;50.930;5.326;2023-04-03T08:07:30;0.20;;;0.20;;
28946;SDS011;16052;50.930;5.326;2023-04-03T08:09:55;0.20;;;0.20;;
28946;SDS011;16052;50.930;5.326;2023-04-03T08:12:22;0.20;;;0.20;;
28946;SDS011;16052;50.930;5.326;2023-04-03T08:14:47;0.20;;;0.20;;
28946;SDS011;16052;50.930;5.326;2023-04-03T08:17:13;0.10;;;0.10;;
28946;SDS011;16052;50.930;5.326;2023-04-03T08:19:39;0.13;;;0.13;;
28946;SDS011;16052;50.930;5.326;2023-04-03T08:22:05;0.10;;;0.10;;
28946;SDS011;16052;50.930;5.326;2023-04-03T08:24:34;0.10;;;0.10;;
28946;SDS011;16052;50.930;5.326;2023-04-03T08:27:00;0.10;;;0.10;;
28946;SDS011;16052;50.930;5.326;2023-04-03T08:29:26;0.10;;;0.10;;
28946;SDS011;16052;50.930;5.326;2023-04-03T08:31:51;0.20;;;0.20;;
28946;SDS011;16052;50.930;5.326;2023-04-03T08:34:17;0.20;;;0.20;;
28946;SDS011;16052;50.930;5.326;2023-04-03T08:36:44;0.20;;;0.20;;
28946;SDS011;16052;50.930;5.326;2023-04-03T08:39:12;0.13;;;0.13;;
28946;SDS011;16052;50.930;5.326;2023-04-03T08:41:41;0.10;;;0.10;;
28946;SDS011;16052;50.930;5.326;2023-04-03T08:49:41;0.10;;;0.10;;
28946;SDS011;16052;50.930;5.326;2023-04-03T08:52:20;0.10;;;0.10;;
28946;SDS011;16052;50.930;5.326;2023-04-03T08:55:02;0.10;;;0.10;;
28946;SDS011;16052;50.930;5.326;2023-04-03T08:57:38;0.10;;;0.10;;
28946;SDS011;16052;50.930;5.326;2023-04-03T09:00:17;0.10;;;0.10;;
28946;SDS011;16052;50.930;5.326;2023-04-03T09:02:52;0.10;;;0.10;;
28946;SDS011;16052;50.930;5.326;2023-04-03T09:05:22;0.10;;;0.10;;
28946;SDS011;16052;50.930;5.326;2023-04-03T09:10:40;0.15;;;0.15;;
28946;SDS011;16052;50.930;5.326;2023-04-03T09:13:13;0.20;;;0.20;;
28946;SDS011;16052;50.930;5.326;2023-04-03T09:15:58;0.10;;;0.10;;
28946;SDS011;16052;50.930;5.326;2023-04-03T09:18:28;0.10;;;0.10;;
28946;SDS011;16052;50.930;5.326;2023-04-03T09:26:17;0.10;;;0.10;;
28946;SDS011;16052;50.930;5.326;2023-04-03T09:28:56;0.10;;;0.10;;
28946;SDS011;16052;50.930;5.326;2023-04-03T09:31:36;0.10;;;0.10;;
28946;SDS011;16052;50.930;5.326;2023-04-03T09:36:52;0.10;;;0.10;;
28946;SDS011;16052;50.930;5.326;2023-04-03T09:39:26;0.20;;;0.20;;
28946;SDS011;16052;50.930;5.326;2023-04-03T09:44:36;0.10;;;0.10;;
28946;SDS011;16052;50.930;5.326;2023-04-03T09:52:39;0.20;;;0.20;;
28946;SDS011;16052;50.930;5.326;2023-04-03T09:55:16;0.20;;;0.20;;
28946;SDS011;16052;50.930;5.326;2023-04-03T09:57:46;0.10;;;0.10;;
28946;SDS011;16052;50.930;5.326;2023-04-03T10:02:56;0.10;;;0.10;;
28946;SDS011;16052;50.930;5.326;2023-04-03T10:05:35;0.10;;;0.10;;
28946;SDS011;16052;50.930;5.326;2023-04-03T10:10:38;0.10;;;0.10;;
28946;SDS011;16052;50.930;5.326;2023-04-03T10:15:46;0.10;;;0.10;;
28946;SDS011;16052;50.930;5.326;2023-04-03T10:20:57;0.13;;;0.13;;
28946;SDS011;16052;50.930;5.326;2023-04-03T10:23:42;0.10;;;0.10;;
28946;SDS011;16052;50.930;5.326;2023-04-03T10:37:48;0.10;;;0.10;;
28946;SDS011;16052;50.930;5.326;2023-04-03T10:40:37;0.10;;;0.10;;
28946;SDS011;16052;50.930;5.326;2023-04-03T10:43:16;0.10;;;0.10;;
28946;SDS011;16052;50.930;5.326;2023-04-03T10:48:57;0.10;;;0.10;;
28946;SDS011;16052;50.930;5.326;2023-04-03T10:54:42;0.10;;;0.10;;
28946;SDS011;16052;50.930;5.326;2023-04-03T10:57:14;0.20;;;0.20;;
28946;SDS011;16052;50.930;5.326;2023-04-03T10:59:47;0.10;;;0.10;;
28946;SDS011;16052;50.930;5.326;2023-04-03T11:04:59;0.15;;;0.15;;
28946;SDS011;16052;50.930;5.326;2023-04-03T11:07:33;0.10;;;0.10;;
28946;SDS011;16052;50.930;5.326;2023-04-03T11:10:06;0.10;;;0.10;;
28946;SDS011;16052;50.930;5.326;2023-04-03T11:12:42;0.10;;;0.10;;
28946;SDS011;16052;50.930;5.326;2023-04-03T11:15:18;0.00;;;0.00;;
28946;SDS011;16052;50.930;5.326;2023-04-03T11:17:53;0.10;;;0.10;;
28946;SDS011;16052;50.930;5.326;2023-04-03T11:20:30;0.10;;;0.10;;
28946;SDS011;16052;50.930;5.326;2023-04-03T11:23:20;0.10;;;0.10;;
28946;SDS011;16052;50.930;5.326;2023-04-03T11:25:50;0.10;;;0.10;;
28946;SDS011;16052;50.930;5.326;2023-04-03T11:28:18;0.13;;;0.13;;
28946;SDS011;16052;50.930;5.326;2023-04-03T11:30:56;0.10;;;0.10;;
28946;SDS011;16052;50.930;5.326;2023-04-03T11:38:49;0.10;;;0.10;;
28946;SDS011;16052;50.930;5.326;2023-04-03T11:41:24;0.08;;;0.08;;
28946;SDS011;16052;50.930;5.326;2023-04-03T11:44:05;0.10;;;0.10;;
28946;SDS011;16052;50.930;5.326;2023-04-03T11:46:51;0.10;;;0.10;;
28946;SDS011;16052;50.930;5.326;2023-04-03T12:13:38;0.10;;;0.10;;
28946;SDS011;16052;50.930;5.326;2023-04-03T12:16:06;0.10;;;0.10;;
28946;SDS011;16052;50.930;5.326;2023-04-03T12:26:44;0.10;;;0.10;;
28946;SDS011;16052;50.930;5.326;2023-04-03T12:39:55;0.10;;;0.10;;
28946;SDS011;16052;50.930;5.326;2023-04-03T12:45:21;0.10;;;0.10;;
28946;SDS011;16052;50.930;5.326;2023-04-03T12:47:52;0.10;;;0.10;;
28946;SDS011;16052;50.930;5.326;2023-04-03T12:50:24;0.10;;;0.10;;
28946;SDS011;16052;50.930;5.326;2023-04-03T12:53:16;0.10;;;0.10;;
28946;SDS011;16052;50.930;5.326;2023-04-03T12:55:53;0.10;;;0.10;;
28946;SDS011;16052;50.930;5.326;2023-04-03T13:01:02;0.10;;;0.10;;
28946;SDS011;16052;50.930;5.326;2023-04-03T13:03:29;0.10;;;0.10;;
28946;SDS011;16052;50.930;5.326;2023-04-03T13:05:57;0.10;;;0.10;;
28946;SDS011;16052;50.930;5.326;2023-04-03T13:08:27;0.10;;;0.10;;
28946;SDS011;16052;50.930;5.326;2023-04-03T13:13:31;0.10;;;0.10;;
28946;SDS011;16052;50.930;5.326;2023-04-03T13:15:57;0.10;;;0.10;;
28946;SDS011;16052;50.930;5.326;2023-04-03T13:18:33;0.10;;;0.10;;
28946;SDS011;16052;50.930;5.326;2023-04-03T13:23:32;0.10;;;0.10;;
28946;SDS011;16052;50.930;5.326;2023-04-03T13:26:02;0.00;;;0.00;;
28946;SDS011;16052;50.930;5.326;2023-04-03T13:28:30;0.10;;;0.10;;
28946;SDS011;16052;50.930;5.326;2023-04-03T13:36:38;0.10;;;0.10;;
28946;SDS011;16052;50.930;5.326;2023-04-03T13:39:17;0.10;;;0.10;;
28946;SDS011;16052;50.930;5.326;2023-04-03T13:41:50;0.10;;;0.10;;
28946;SDS011;16052;50.930;5.326;2023-04-03T13:46:47;0.10;;;0.10;;
28946;SDS011;16052;50.930;5.326;2023-04-03T13:49:40;0.10;;;0.10;;
28946;SDS011;16052;50.930;5.326;2023-04-03T13:54:54;0.10;;;0.10;;
28946;SDS011;16052;50.930;5.326;2023-04-03T13:57:25;0.10;;;0.10;;
28946;SDS011;16052;50.930;5.326;2023-04-03T13:59:53;0.10;;;0.10;;
28946;SDS011;16052;50.930;5.326;2023-04-03T14:02:29;0.10;;;0.10;;
28946;SDS011;16052;50.930;5.326;2023-04-03T14:04:59;0.10;;;0.10;;
28946;SDS011;16052;50.930;5.326;2023-04-03T14:07:27;0.10;;;0.10;;
28946;SDS011;16052;50.930;5.326;2023-04-03T14:09:54;0.10;;;0.10;;
28946;SDS011;16052;50.930;5.326;2023-04-03T14:14:56;0.10;;;0.10;;
28946;SDS011;16052;50.930;5.326;2023-04-03T14:17:25;0.10;;;0.10;;
28946;SDS011;16052;50.930;5.326;2023-04-03T14:27:15;0.10;;;0.10;;
28946;SDS011;16052;50.930;5.326;2023-04-03T14:29:44;0.10;;;0.10;;
28946;SDS011;16052;50.930;5.326;2023-04-03T14:32:12;0.10;;;0.10;;
28946;SDS011;16052;50.930;5.326;2023-04-03T14:34:39;0.00;;;0.00;;
28946;SDS011;16052;50.930;5.326;2023-04-03T14:37:09;0.10;;;0.10;;
28946;SDS011;16052;50.930;5.326;2023-04-03T14:39:36;0.10;;;0.10;;
28946;SDS011;16052;50.930;5.326;2023-04-03T14:42:02;0.10;;;0.10;;
28946;SDS011;16052;50.930;5.326;2023-04-03T14:44:28;0.10;;;0.10;;
28946;SDS011;16052;50.930;5.326;2023-04-03T14:46:54;0.10;;;0.10;;
28946;SDS011;16052;50.930;5.326;2023-04-03T14:49:22;0.10;;;0.10;;
28946;SDS011;16052;50.930;5.326;2023-04-03T14:51:52;0.10;;;0.10;;
28946;SDS011;16052;50.930;5.326;2023-04-03T14:54:20;0.00;;;0.00;;
28946;SDS011;16052;50.930;5.326;2023-04-03T14:56:52;0.00;;;0.00;;
28946;SDS011;16052;50.930;5.326;2023-04-03T14:59:37;0.10;;;0.10;;
28946;SDS011;16052;50.930;5.326;2023-04-03T15:02:08;0.10;;;0.10;;
28946;SDS011;16052;50.930;5.326;2023-04-03T15:04:56;0.10;;;0.10;;
28946;SDS011;16052;50.930;5.326;2023-04-03T15:07:22;0.10;;;0.10;;
28946;SDS011;16052;50.930;5.326;2023-04-03T15:09:50;0.00;;;0.00;;
28946;SDS011;16052;50.930;5.326;2023-04-03T15:12:16;0.10;;;0.10;;
28946;SDS011;16052;50.930;5.326;2023-04-03T15:14:42;0.10;;;0.10;;
28946;SDS011;16052;50.930;5.326;2023-04-03T15:17:10;0.10;;;0.10;;
28946;SDS011;16052;50.930;5.326;2023-04-03T15:19:45;0.10;;;0.10;;
28946;SDS011;16052;50.930;5.326;2023-04-03T15:22:15;0.10;;;0.10;;
28946;SDS011;16052;50.930;5.326;2023-04-03T15:24:42;0.10;;;0.10;;
28946;SDS011;16052;50.930;5.326;2023-04-03T15:27:09;0.10;;;0.10;;
28946;SDS011;16052;50.930;5.326;2023-04-03T15:29:36;0.00;;;0.00;;
28946;SDS011;16052;50.930;5.326;2023-04-03T15:32:03;0.00;;;0.00;;
28946;SDS011;16052;50.930;5.326;2023-04-03T15:34:28;0.10;;;0.10;;
28946;SDS011;16052;50.930;5.326;2023-04-03T15:36:54;0.10;;;0.10;;
28946;SDS011;16052;50.930;5.326;2023-04-03T15:39:20;0.10;;;0.10;;
28946;SDS011;16052;50.930;5.326;2023-04-03T15:41:47;0.10;;;0.10;;
28946;SDS011;16052;50.930;5.326;2023-04-03T15:44:13;0.10;;;0.10;;
28946;SDS011;16052;50.930;5.326;2023-04-03T15:46:44;0.10;;;0.10;;
28946;SDS011;16052;50.930;5.326;2023-04-03T15:49:10;0.08;;;0.08;;
28946;SDS011;16052;50.930;5.326;2023-04-03T15:51:36;0.10;;;0.10;;
28946;SDS011;16052;50.930;5.326;2023-04-03T15:54:02;0.10;;;0.10;;
28946;SDS011;16052;50.930;5.326;2023-04-03T15:56:29;0.10;;;0.10;;
28946;SDS011;16052;50.930;5.326;2023-04-03T15:58:54;0.10;;;0.10;;
28946;SDS011;16052;50.930;5.326;2023-04-03T16:01:20;0.00;;;0.00;;
28946;SDS011;16052;50.930;5.326;2023-04-03T16:03:46;0.10;;;0.10;;
28946;SDS011;16052;50.930;5.326;2023-04-03T16:06:13;0.10;;;0.10;;
28946;SDS011;16052;50.930;5.326;2023-04-03T16:08:40;0.10;;;0.10;;
28946;SDS011;16052;50.930;5.326;2023-04-03T16:11:06;0.10;;;0.10;;
28946;SDS011;16052;50.930;5.326;2023-04-03T16:13:32;0.10;;;0.10;;
28946;SDS011;16052;50.930;5.326;2023-04-03T16:15:58;0.10;;;0.10;;
28946;SDS011;16052;50.930;5.326;2023-04-03T16:18:25;0.10;;;0.10;;
28946;SDS011;16052;50.930;5.326;2023-04-03T16:20:51;0.10;;;0.10;;
28946;SDS011;16052;50.930;5.326;2023-04-03T16:23:17;0.10;;;0.10;;
28946;SDS011;16052;50.930;5.326;2023-04-03T16:25:43;0.10;;;0.10;;
28946;SDS011;16052;50.930;5.326;2023-04-03T16:28:11;0.10;;;0.10;;
28946;SDS011;16052;50.930;5.326;2023-04-03T16:33:06;0.10;;;0.10;;
28946;SDS011;16052;50.930;5.326;2023-04-03T16:35:33;0.05;;;0.05;;
28946;SDS011;16052;50.930;5.326;2023-04-03T16:37:59;0.10;;;0.10;;
28946;SDS011;16052;50.930;5.326;2023-04-03T16:40:25;0.10;;;0.10;;
28946;SDS011;16052;50.930;5.326;2023-04-03T16:42:51;0.10;;;0.10;;
28946;SDS011;16052;50.930;5.326;2023-04-03T16:45:16;0.10;;;0.10;;
28946;SDS011;16052;50.930;5.326;2023-04-03T16:47:42;0.10;;;0.10;;
28946;SDS011;16052;50.930;5.326;2023-04-03T16:50:08;0.10;;;0.10;;
28946;SDS011;16052;50.930;5.326;2023-04-03T16:52:34;0.10;;;0.10;;
28946;SDS011;16052;50.930;5.326;2023-04-03T16:55:00;0.10;;;0.10;;
28946;SDS011;16052;50.930;5.326;2023-04-03T16:57:26;0.10;;;0.10;;
28946;SDS011;16052;50.930;5.326;2023-04-03T16:59:52;0.10;;;0.10;;
28946;SDS011;16052;50.930;5.326;2023-04-03T17:02:19;0.00;;;0.00;;
28946;SDS011;16052;50.930;5.326;2023-04-03T17:04:46;0.10;;;0.10;;
28946;SDS011;16052;50.930;5.326;2023-04-03T17:07:12;0.10;;;0.10;;
28946;SDS011;16052;50.930;5.326;2023-04-03T17:09:37;0.10;;;0.10;;
28946;SDS011;16052;50.930;5.326;2023-04-03T17:12:03;0.10;;;0.10;;
28946;SDS011;16052;50.930;5.326;2023-04-03T17:14:29;0.10;;;0.10;;
28946;SDS011;16052;50.930;5.326;2023-04-03T17:16:55;0.10;;;0.10;;
28946;SDS011;16052;50.930;5.326;2023-04-03T17:19:20;0.10;;;0.10;;